createdAt,value
2023-03-24T00:00:13.190Z,2.80
2023-03-24T00:02:45.437Z,3.60
2023-03-24T00:05:20.300Z,7.67
2023-03-24T00:07:54.728Z,10.20
2023-03-24T00:10:23.873Z,5.53
2023-03-24T00:12:53.662Z,9.93
2023-03-24T00:15:24.075Z,6.73
2023-03-24T00:17:55.840Z,8.63
2023-03-24T00:20:26.173Z,6.23
2023-03-24T00:22:58.915Z,5.23
2023-03-24T00:25:29.796Z,8.67
2023-03-24T00:27:58.699Z,5.37
2023-03-24T00:30:27.533Z,5.47
2023-03-24T00:32:59.144Z,4.63
2023-03-24T00:35:28.296Z,5.20
2023-03-24T00:37:56.510Z,4.90
2023-03-24T00:40:25.079Z,6.13
2023-03-24T00:42:54.145Z,4.30
2023-03-24T00:45:24.047Z,4.80
2023-03-24T00:47:54.658Z,4.33
2023-03-24T00:50:27.569Z,4.73
2023-03-24T00:52:58.254Z,5.27
2023-03-24T00:55:28.976Z,5.00
2023-03-24T00:57:57.568Z,4.67
2023-03-24T01:00:27.745Z,4.47
2023-03-24T01:02:59.297Z,4.60
2023-03-24T01:05:31.156Z,4.03
2023-03-24T01:08:03.857Z,4.17
2023-03-24T01:10:35.047Z,4.40
2023-03-24T01:13:03.984Z,4.00
2023-03-24T01:15:34.375Z,4.53
2023-03-24T01:18:03.162Z,4.00
2023-03-24T01:20:33.892Z,4.27
2023-03-24T01:23:03.152Z,4.37
2023-03-24T01:25:31.699Z,3.83
2023-03-24T01:28:00.658Z,3.97
2023-03-24T01:30:31.243Z,5.50
2023-03-24T01:32:59.571Z,3.40
2023-03-24T01:35:29.512Z,3.53
2023-03-24T01:38:00.872Z,3.70
2023-03-24T01:40:32.001Z,3.50
2023-03-24T01:43:01.342Z,3.50
2023-03-24T01:45:58.049Z,3.60
2023-03-24T01:48:29.742Z,3.57
2023-03-24T01:51:02.326Z,4.40
2023-03-24T01:53:34.209Z,3.70
2023-03-24T01:56:03.784Z,3.60
2023-03-24T01:58:34.477Z,3.90
2023-03-24T02:01:04.876Z,3.20
2023-03-24T02:03:38.657Z,4.60
2023-03-24T02:06:08.669Z,3.50
2023-03-24T02:08:43.203Z,3.80
2023-03-24T02:11:11.842Z,3.50
2023-03-24T02:13:40.320Z,3.37
2023-03-24T02:16:22.305Z,3.53
2023-03-24T02:19:01.357Z,4.20
2023-03-24T02:21:58.309Z,3.40
2023-03-24T02:25:25.614Z,3.80
2023-03-24T02:28:05.135Z,3.60
2023-03-24T02:31:06.427Z,3.67
2023-03-24T02:34:05.003Z,4.20
2023-03-24T02:37:07.488Z,3.23
2023-03-24T02:39:56.599Z,4.20
2023-03-24T02:42:48.169Z,3.27
2023-03-24T02:45:26.577Z,4.03
2023-03-24T02:48:10.577Z,3.80
2023-03-24T02:50:44.649Z,4.57
2023-03-24T02:53:20.979Z,3.50
2023-03-24T02:55:56.711Z,3.00
2023-03-24T02:58:32.584Z,4.33
2023-03-24T03:01:06.128Z,3.50
2023-03-24T03:03:40.762Z,4.77
2023-03-24T03:06:15.749Z,3.50
2023-03-24T03:08:47.499Z,3.70
2023-03-24T03:11:18.598Z,4.20
2023-03-24T03:13:51.797Z,3.80
2023-03-24T03:16:27.003Z,4.00
2023-03-24T03:19:01.284Z,3.37
2023-03-24T03:21:36.171Z,3.23
2023-03-24T03:24:09.374Z,3.50
2023-03-24T03:26:39.476Z,4.00
2023-03-24T03:29:13.094Z,3.47
2023-03-24T03:31:44.775Z,3.40
2023-03-24T03:34:18.824Z,3.57
2023-03-24T03:36:52.090Z,3.60
2023-03-24T03:39:26.653Z,3.37
2023-03-24T03:41:57.789Z,3.53
2023-03-24T03:44:26.944Z,3.43
2023-03-24T03:46:56.426Z,3.43
2023-03-24T03:49:25.887Z,3.60
2023-03-24T03:51:55.777Z,4.63
2023-03-24T03:54:26.792Z,4.70
2023-03-24T03:56:56.942Z,6.90
2023-03-24T03:59:28.382Z,5.40
2023-03-24T04:01:57.109Z,5.20
2023-03-24T04:05:06.277Z,4.80
2023-03-24T04:07:44.879Z,5.13
2023-03-24T04:10:20.396Z,4.97
2023-03-24T04:13:02.083Z,4.73
2023-03-24T04:15:41.720Z,5.10
2023-03-24T04:18:37.000Z,6.03
2023-03-24T04:21:20.157Z,5.60
2023-03-24T04:23:56.363Z,5.43
2023-03-24T04:26:29.480Z,5.77
2023-03-24T04:29:09.222Z,5.87
2023-03-24T04:31:42.275Z,5.40
2023-03-24T04:34:16.410Z,5.43
2023-03-24T04:36:50.486Z,6.03
2023-03-24T04:39:28.306Z,4.40
2023-03-24T04:41:58.740Z,4.73
2023-03-24T04:44:28.939Z,4.23
2023-03-24T04:46:59.249Z,4.03
2023-03-24T04:49:27.731Z,4.07
2023-03-24T04:51:56.746Z,4.40
2023-03-24T04:54:25.743Z,3.70
2023-03-24T04:56:55.872Z,3.60
2023-03-24T04:59:24.527Z,3.27
2023-03-24T05:01:54.261Z,4.80
2023-03-24T05:04:24.254Z,3.53
2023-03-24T05:06:52.933Z,3.80
2023-03-24T05:09:23.638Z,4.97
2023-03-24T05:11:52.819Z,3.83
2023-03-24T05:14:21.424Z,3.50
2023-03-24T05:16:49.868Z,3.90
2023-03-24T05:19:19.595Z,4.20
2023-03-24T05:21:51.647Z,4.87
2023-03-24T05:24:19.886Z,4.27
2023-03-24T05:26:50.164Z,3.87
2023-03-24T05:29:19.009Z,3.77
2023-03-24T05:31:47.532Z,3.73
2023-03-24T05:34:18.369Z,3.80
2023-03-24T05:36:48.054Z,3.90
2023-03-24T05:39:16.728Z,3.50
2023-03-24T05:41:45.149Z,3.57
2023-03-24T05:44:14.295Z,3.93
2023-03-24T05:46:42.798Z,5.17
2023-03-24T05:49:11.294Z,3.63
2023-03-24T05:51:42.818Z,3.80
2023-03-24T05:54:12.311Z,3.60
2023-03-24T05:56:40.932Z,3.53
2023-03-24T05:59:09.288Z,3.77
2023-03-24T06:01:38.019Z,3.67
2023-03-24T06:04:09.431Z,3.87
2023-03-24T06:06:38.858Z,3.73
2023-03-24T06:09:07.100Z,3.60
2023-03-24T06:11:42.316Z,4.00
2023-03-24T06:14:12.479Z,4.17
2023-03-24T06:16:40.865Z,3.90
2023-03-24T06:19:11.264Z,3.43
2023-03-24T06:21:39.613Z,3.60
2023-03-24T06:24:08.640Z,3.93
2023-03-24T06:26:38.500Z,4.07
2023-03-24T06:29:06.841Z,3.70
2023-03-24T06:31:37.413Z,4.33
2023-03-24T06:34:06.603Z,4.07
2023-03-24T06:36:35.588Z,3.30
2023-03-24T06:39:06.118Z,3.40
2023-03-24T06:41:36.472Z,3.50
2023-03-24T06:44:06.412Z,3.37
2023-03-24T06:46:36.169Z,3.43
2023-03-24T06:49:04.705Z,3.30
2023-03-24T06:51:33.265Z,3.90
2023-03-24T06:54:02.000Z,4.20
2023-03-24T06:56:30.692Z,13.93
2023-03-24T06:58:59.048Z,20.83
2023-03-24T07:01:29.753Z,10.20
2023-03-24T07:03:59.456Z,5.03
2023-03-24T07:06:29.775Z,4.33
2023-03-24T07:08:58.632Z,8.40
2023-03-24T07:11:27.279Z,10.23
2023-03-24T07:13:58.314Z,10.57
2023-03-24T07:16:28.031Z,7.67
2023-03-24T07:18:57.362Z,5.93
2023-03-24T07:21:25.724Z,6.87
2023-03-24T07:23:56.483Z,6.00
2023-03-24T07:26:25.726Z,4.53
2023-03-24T07:28:54.577Z,4.13
2023-03-24T07:31:24.672Z,3.70
2023-03-24T07:33:54.683Z,4.87
2023-03-24T07:36:23.161Z,7.07
2023-03-24T07:38:51.536Z,8.93
2023-03-24T07:41:19.776Z,13.73
2023-03-24T07:43:51.054Z,9.83
2023-03-24T07:46:19.582Z,7.77
2023-03-24T07:48:47.991Z,6.77
2023-03-24T07:51:19.933Z,5.37
2023-03-24T07:53:48.645Z,5.20
2023-03-24T07:56:17.021Z,4.00
2023-03-24T07:58:45.898Z,4.63
2023-03-24T08:01:14.690Z,3.83
2023-03-24T08:03:44.093Z,3.67
2023-03-24T08:06:15.306Z,6.83
2023-03-24T08:08:44.990Z,4.87
2023-03-24T08:11:13.329Z,4.93
2023-03-24T08:13:41.897Z,6.03
2023-03-24T08:16:11.510Z,4.83
2023-03-24T08:18:40.383Z,7.87
2023-03-24T08:21:09.087Z,5.67
2023-03-24T08:23:40.040Z,4.50
2023-03-24T08:26:11.284Z,3.97
2023-03-24T08:28:41.658Z,3.80
2023-03-24T08:31:13.307Z,8.07
2023-03-24T08:33:42.277Z,5.17
2023-03-24T08:36:11.454Z,6.17
2023-03-24T08:38:40.400Z,4.83
2023-03-24T08:41:10.966Z,4.80
2023-03-24T08:43:39.546Z,4.27
2023-03-24T08:46:13.926Z,4.27
2023-03-24T08:48:45.992Z,5.23
2023-03-24T08:51:15.838Z,4.53
2023-03-24T08:53:47.396Z,4.70
2023-03-24T08:56:18.207Z,13.50
2023-03-24T08:58:48.372Z,12.73
2023-03-24T09:01:18.241Z,14.10
2023-03-24T09:03:49.130Z,6.13
2023-03-24T09:06:18.235Z,6.77
2023-03-24T09:08:48.992Z,5.40
2023-03-24T09:11:23.893Z,6.77
2023-03-24T09:13:54.947Z,7.40
2023-03-24T09:16:23.699Z,7.50
2023-03-24T09:18:52.024Z,6.47
2023-03-24T09:21:20.543Z,5.37
2023-03-24T09:23:50.995Z,5.10
2023-03-24T09:26:20.777Z,3.73
2023-03-24T09:28:49.151Z,6.37
2023-03-24T09:31:17.686Z,2.70
2023-03-24T09:33:49.633Z,4.10
2023-03-24T09:36:18.268Z,5.43
2023-03-24T09:38:46.619Z,8.20
2023-03-24T09:41:19.226Z,6.27
2023-03-24T09:43:57.743Z,5.80
2023-03-24T09:46:31.989Z,2.93
2023-03-24T09:49:00.427Z,2.57
2023-03-24T09:51:33.216Z,4.77
2023-03-24T09:54:15.888Z,4.97
2023-03-24T09:56:48.731Z,3.27
2023-03-24T09:59:22.758Z,3.73
2023-03-24T10:01:52.230Z,1.87
2023-03-24T10:04:27.174Z,2.87
2023-03-24T10:06:59.528Z,1.70
2023-03-24T10:09:29.690Z,2.23
2023-03-24T10:12:10.974Z,1.63
2023-03-24T10:14:53.633Z,1.77
2023-03-24T10:17:31.480Z,2.30
2023-03-24T10:20:07.731Z,2.17
2023-03-24T10:22:47.420Z,1.70
2023-03-24T10:25:50.380Z,2.33
2023-03-24T10:28:24.350Z,4.10
2023-03-24T10:30:57.083Z,2.87
2023-03-24T10:33:28.628Z,3.83
2023-03-24T10:36:02.313Z,5.77
2023-03-24T10:38:30.936Z,7.67
2023-03-24T10:41:01.889Z,4.90
2023-03-24T10:43:30.853Z,5.77
2023-03-24T10:46:05.891Z,3.93
2023-03-24T10:48:36.862Z,7.10
2023-03-24T10:51:06.103Z,8.17
2023-03-24T10:53:34.841Z,16.53
2023-03-24T10:56:07.768Z,10.17
2023-03-24T10:58:45.296Z,13.57
2023-03-24T11:01:27.256Z,6.60
2023-03-24T11:04:05.188Z,10.00
2023-03-24T11:06:36.984Z,8.73
2023-03-24T11:09:10.658Z,8.00
2023-03-24T11:11:38.988Z,4.73
2023-03-24T11:14:23.523Z,7.73
2023-03-24T11:16:54.396Z,6.10
2023-03-24T11:19:27.185Z,5.67
2023-03-24T11:22:08.826Z,5.77
2023-03-24T11:24:38.779Z,4.37
2023-03-24T11:27:08.227Z,13.97
2023-03-24T11:29:41.084Z,7.63
2023-03-24T11:32:15.634Z,8.47
2023-03-24T11:34:50.120Z,7.43
2023-03-24T11:37:21.612Z,7.73
2023-03-24T11:40:16.812Z,8.50
2023-03-24T11:42:47.685Z,4.67
2023-03-24T11:45:27.410Z,8.63
2023-03-24T11:47:58.916Z,5.10
2023-03-24T11:50:31.481Z,2.60
2023-03-24T11:53:08.521Z,2.83
2023-03-24T11:55:48.187Z,4.13
2023-03-24T11:58:28.046Z,3.87
2023-03-24T12:01:02.086Z,4.47
2023-03-24T12:04:00.144Z,3.20
2023-03-24T12:06:36.901Z,3.30
2023-03-24T12:09:17.915Z,3.80
2023-03-24T12:12:01.871Z,4.13
2023-03-24T12:14:45.839Z,3.33
2023-03-24T12:17:20.841Z,4.43
2023-03-24T12:20:02.905Z,5.17
2023-03-24T12:22:44.182Z,4.60
2023-03-24T12:25:38.427Z,4.23
2023-03-24T12:28:20.436Z,4.07
2023-03-24T12:30:56.589Z,2.13
2023-03-24T12:33:38.163Z,4.67
2023-03-24T12:36:37.421Z,2.30
2023-03-24T12:39:10.810Z,2.53
2023-03-24T12:42:03.251Z,2.73
2023-03-24T12:45:02.657Z,1.67
2023-03-24T12:48:02.137Z,1.70
2023-03-24T12:50:40.952Z,2.00
2023-03-24T12:53:36.900Z,1.90
2023-03-24T12:56:10.791Z,2.27
2023-03-24T12:58:43.956Z,2.10
2023-03-24T13:01:19.121Z,1.90
2023-03-24T13:03:49.396Z,2.70
2023-03-24T13:06:24.112Z,2.53
2023-03-24T13:09:04.958Z,3.40
2023-03-24T13:11:41.273Z,2.67
2023-03-24T13:14:16.312Z,3.90
2023-03-24T13:16:46.343Z,2.73
2023-03-24T13:19:21.809Z,3.50
2023-03-24T13:21:53.319Z,2.53
2023-03-24T13:24:23.778Z,1.97
2023-03-24T13:27:01.564Z,2.27
2023-03-24T13:30:07.456Z,2.43
2023-03-24T13:32:41.342Z,3.10
2023-03-24T13:35:18.821Z,2.10
2023-03-24T13:37:50.927Z,4.90
2023-03-24T13:40:24.329Z,2.20
2023-03-24T13:42:56.908Z,2.10
2023-03-24T13:45:33.649Z,2.13
2023-03-24T13:48:17.052Z,2.67
2023-03-24T13:50:55.219Z,3.43
2023-03-24T13:53:34.185Z,3.83
2023-03-24T13:56:04.928Z,5.63
2023-03-24T13:59:07.084Z,7.33
2023-03-24T14:01:38.635Z,4.57
2023-03-24T14:04:23.848Z,4.80
2023-03-24T14:06:54.098Z,8.00
2023-03-24T14:09:24.235Z,5.73
2023-03-24T14:12:19.553Z,4.07
2023-03-24T14:15:14.900Z,4.73
2023-03-24T14:17:45.400Z,3.20
2023-03-24T14:20:25.722Z,2.40
2023-03-24T14:22:58.184Z,2.97
2023-03-24T14:25:30.692Z,2.37
2023-03-24T14:28:20.911Z,3.57
2023-03-24T14:31:13.217Z,6.30
2023-03-24T14:33:46.438Z,5.33
2023-03-24T14:36:23.266Z,3.37
2023-03-24T14:38:52.451Z,2.57
2023-03-24T14:41:31.183Z,2.67
2023-03-24T14:44:02.412Z,2.27
2023-03-24T14:46:41.922Z,1.73
2023-03-24T14:49:20.032Z,1.73
2023-03-24T14:51:55.939Z,1.83
2023-03-24T14:54:29.578Z,1.97
2023-03-24T14:56:59.641Z,1.47
2023-03-24T14:59:36.760Z,3.13
2023-03-24T15:02:16.880Z,1.90
2023-03-24T15:05:30.873Z,2.23
2023-03-24T15:08:08.606Z,1.87
2023-03-24T15:10:40.974Z,1.50
2023-03-24T15:13:33.949Z,3.00
2023-03-24T15:16:07.547Z,1.67
2023-03-24T15:18:40.353Z,1.30
2023-03-24T15:21:17.183Z,2.00
2023-03-24T15:23:48.970Z,1.30
2023-03-24T15:26:22.278Z,1.33
2023-03-24T15:29:02.006Z,1.50
2023-03-24T15:31:39.235Z,1.13
2023-03-24T15:34:25.622Z,1.10
2023-03-24T15:36:56.513Z,1.43
2023-03-24T15:39:28.381Z,2.60
2023-03-24T15:41:56.904Z,2.33
2023-03-24T15:44:27.756Z,2.30
2023-03-24T15:47:00.319Z,1.20
2023-03-24T15:49:32.634Z,1.10
2023-03-24T15:52:03.007Z,1.90
2023-03-24T15:54:33.186Z,1.80
2023-03-24T15:57:05.566Z,1.53
2023-03-24T15:59:37.073Z,1.67
2023-03-24T16:02:15.244Z,1.47
2023-03-24T16:04:43.788Z,51.30
2023-03-24T16:07:29.705Z,34.37
2023-03-24T16:10:02.839Z,24.77
2023-03-24T16:12:32.016Z,12.93
2023-03-24T16:15:02.172Z,4.13
2023-03-24T16:17:32.673Z,3.80
2023-03-24T16:20:01.169Z,2.67
2023-03-24T16:22:29.881Z,1.53
2023-03-24T16:24:58.307Z,3.17
2023-03-24T16:27:26.794Z,1.60
2023-03-24T16:29:55.847Z,1.53
2023-03-24T16:32:24.508Z,2.83
2023-03-24T16:34:54.291Z,3.10
2023-03-24T16:37:23.335Z,1.73
2023-03-24T16:39:51.605Z,2.07
2023-03-24T16:42:20.421Z,3.87
2023-03-24T16:44:48.884Z,2.70
2023-03-24T16:47:17.372Z,2.67
2023-03-24T16:49:47.380Z,5.10
2023-03-24T16:52:18.317Z,2.03
2023-03-24T16:54:49.972Z,2.87
2023-03-24T16:57:18.492Z,4.03
2023-03-24T16:59:46.945Z,1.43
2023-03-24T17:02:15.482Z,2.43
2023-03-24T17:04:44.542Z,3.57
2023-03-24T17:07:13.226Z,2.20
2023-03-24T17:09:44.619Z,2.50
2023-03-24T17:12:12.985Z,2.67
2023-03-24T17:14:42.683Z,3.30
2023-03-24T17:17:12.433Z,2.83
2023-03-24T17:19:43.049Z,3.00
2023-03-24T17:22:17.443Z,3.57
2023-03-24T17:24:57.535Z,5.07
2023-03-24T17:27:26.068Z,4.83
2023-03-24T17:29:54.968Z,5.50
2023-03-24T17:32:29.494Z,4.30
2023-03-24T17:34:57.928Z,3.20
2023-03-24T17:37:28.463Z,14.77
2023-03-24T17:39:58.210Z,27.23
2023-03-24T17:42:28.496Z,203.93
2023-03-24T17:44:56.784Z,163.20
2023-03-24T17:47:25.527Z,110.17
2023-03-24T17:49:53.866Z,101.10
2023-03-24T17:52:22.792Z,60.97
2023-03-24T17:54:51.131Z,11.67
2023-03-24T17:57:21.096Z,10.60
2023-03-24T17:59:50.232Z,6.83
2023-03-24T18:02:19.784Z,6.20
2023-03-24T18:04:48.212Z,5.77
2023-03-24T18:07:16.459Z,10.57
2023-03-24T18:09:44.765Z,14.00
2023-03-24T18:12:13.012Z,22.90
2023-03-24T18:14:42.746Z,30.90
2023-03-24T18:17:11.100Z,26.30
2023-03-24T18:19:40.532Z,32.70
2023-03-24T18:22:09.188Z,33.07
2023-03-24T18:24:38.034Z,26.63
2023-03-24T18:27:09.868Z,19.50
2023-03-24T18:29:38.697Z,39.67
2023-03-24T18:32:08.285Z,23.10
2023-03-24T18:34:38.866Z,21.83
2023-03-24T18:37:07.792Z,15.13
2023-03-24T18:39:36.556Z,14.30
2023-03-24T18:42:05.295Z,7.07
2023-03-24T18:44:33.519Z,10.27
2023-03-24T18:47:02.046Z,8.20
2023-03-24T18:49:31.842Z,4.67
2023-03-24T18:52:00.007Z,4.63
2023-03-24T18:54:28.304Z,3.47
2023-03-24T18:56:56.723Z,3.03
2023-03-24T18:59:27.998Z,3.77
2023-03-24T19:01:56.270Z,3.03
2023-03-24T19:04:25.467Z,3.63
2023-03-24T19:06:56.757Z,4.43
2023-03-24T19:09:25.889Z,2.70
2023-03-24T19:11:54.233Z,3.20
2023-03-24T19:14:22.724Z,3.57
2023-03-24T19:16:51.002Z,3.30
2023-03-24T19:19:20.421Z,3.33
2023-03-24T19:21:49.115Z,4.93
2023-03-24T19:24:19.264Z,2.40
2023-03-24T19:26:48.218Z,3.60
2023-03-24T19:29:16.627Z,3.57
2023-03-24T19:31:46.503Z,3.83
2023-03-24T19:34:15.220Z,3.23
2023-03-24T19:36:45.942Z,3.40
2023-03-24T19:39:18.187Z,4.70
2023-03-24T19:41:46.509Z,4.63
2023-03-24T19:44:14.866Z,3.83
2023-03-24T19:46:43.504Z,6.23
2023-03-24T19:49:11.883Z,5.97
2023-03-24T19:51:40.250Z,6.10
2023-03-24T19:54:08.954Z,5.90
2023-03-24T19:56:38.636Z,5.90
2023-03-24T19:59:07.064Z,5.73
2023-03-24T20:01:36.583Z,4.40
2023-03-24T20:04:05.029Z,4.23
2023-03-24T20:06:33.530Z,5.10
2023-03-24T20:09:01.816Z,3.67
2023-03-24T20:11:30.382Z,4.17
2023-03-24T20:14:00.396Z,4.40
2023-03-24T20:16:28.919Z,5.43
2023-03-24T20:18:57.587Z,3.27
2023-03-24T20:21:27.448Z,3.00
2023-03-24T20:23:56.138Z,3.87
2023-03-24T20:26:24.752Z,6.30
2023-03-24T20:28:53.421Z,5.17
2023-03-24T20:31:24.840Z,4.20
2023-03-24T20:33:53.165Z,5.20
2023-03-24T20:36:21.464Z,3.27
2023-03-24T20:38:49.862Z,4.67
2023-03-24T20:41:19.516Z,3.43
2023-03-24T20:43:47.786Z,4.03
2023-03-24T20:46:18.480Z,4.27
2023-03-24T20:48:48.239Z,4.73
2023-03-24T20:51:17.215Z,6.03
2023-03-24T20:53:49.721Z,4.30
2023-03-24T20:56:19.142Z,5.33
2023-03-24T20:58:47.639Z,6.17
2023-03-24T21:01:20.857Z,4.87
2023-03-24T21:03:51.705Z,5.97
2023-03-24T21:06:21.156Z,4.33
2023-03-24T21:08:49.626Z,3.87
2023-03-24T21:11:17.957Z,6.90
2023-03-24T21:13:46.261Z,4.30
2023-03-24T21:16:14.731Z,5.87
2023-03-24T21:18:43.960Z,7.10
2023-03-24T21:21:15.619Z,7.57
2023-03-24T21:23:44.198Z,7.97
2023-03-24T21:26:15.632Z,10.33
2023-03-24T21:28:44.555Z,7.63
2023-03-24T21:31:16.732Z,7.50
2023-03-24T21:33:44.926Z,8.20
2023-03-24T21:36:14.974Z,6.73
2023-03-24T21:38:43.687Z,5.17
2023-03-24T21:41:13.049Z,5.80
2023-03-24T21:43:42.096Z,5.03
2023-03-24T21:46:15.074Z,7.07
2023-03-24T21:48:49.985Z,4.50
2023-03-24T21:51:25.361Z,5.73
2023-03-24T21:53:55.864Z,5.13
2023-03-24T21:56:24.450Z,5.27
2023-03-24T21:58:54.377Z,5.97
2023-03-24T22:01:23.281Z,6.60
2023-03-24T22:03:54.302Z,5.77
2023-03-24T22:06:24.656Z,6.83
2023-03-24T22:08:53.177Z,7.10
2023-03-24T22:11:21.729Z,5.83
2023-03-24T22:13:50.303Z,7.87
2023-03-24T22:16:18.575Z,6.00
2023-03-24T22:18:47.687Z,7.30
2023-03-24T22:21:16.076Z,8.30
2023-03-24T22:23:46.005Z,8.27
2023-03-24T22:26:16.884Z,8.77
2023-03-24T22:28:45.427Z,9.70
2023-03-24T22:31:16.309Z,7.80
2023-03-24T22:33:47.527Z,7.97
2023-03-24T22:36:16.072Z,8.33
2023-03-24T22:38:45.653Z,7.63
2023-03-24T22:41:14.510Z,8.10
2023-03-24T22:43:43.799Z,7.10
2023-03-24T22:46:12.615Z,7.10
2023-03-24T22:48:41.198Z,7.03
2023-03-24T22:51:10.008Z,5.47
2023-03-24T22:53:38.362Z,7.43
2023-03-24T22:56:09.722Z,4.50
2023-03-24T22:58:40.231Z,4.87
2023-03-24T23:01:09.581Z,6.47
2023-03-24T23:03:38.330Z,4.50
2023-03-24T23:06:09.041Z,4.10
2023-03-24T23:08:38.854Z,4.87
2023-03-24T23:11:09.810Z,4.00
2023-03-24T23:13:38.986Z,6.03
2023-03-24T23:16:08.510Z,6.10
2023-03-24T23:18:37.745Z,4.40
2023-03-24T23:21:09.109Z,5.47
2023-03-24T23:23:39.658Z,6.13
2023-03-24T23:26:13.752Z,4.57
2023-03-24T23:28:54.801Z,5.10
2023-03-24T23:31:25.744Z,8.70
2023-03-24T23:34:51.090Z,9.80
2023-03-24T23:37:39.637Z,5.93
2023-03-24T23:40:12.634Z,5.57
2023-03-24T23:42:49.200Z,7.03
2023-03-24T23:45:19.299Z,6.13
2023-03-24T23:47:50.231Z,5.57
2023-03-24T23:50:19.325Z,5.97
2023-03-24T23:52:48.322Z,8.83
2023-03-24T23:55:18.530Z,6.87
2023-03-24T23:57:49.734Z,9.43
